sensor_id;sensor_type;location;lat;lon;timestamp;temperature;humidity
22734;DHT22;11534;51.994;5.692;2023-12-20T00:02:17;6.30;99.90
22734;DHT22;11534;51.994;5.692;2023-12-20T00:04:43;6.30;99.90
22734;DHT22;11534;51.994;5.692;2023-12-20T00:07:08;6.20;99.90
22734;DHT22;11534;51.994;5.692;2023-12-20T00:09:34;6.30;99.90
22734;DHT22;11534;51.994;5.692;2023-12-20T00:11:59;6.30;99.90
22734;DHT22;11534;51.994;5.692;2023-12-20T00:14:25;6.30;99.90
22734;DHT22;11534;51.994;5.692;2023-12-20T00:16:51;6.30;99.90
22734;DHT22;11534;51.994;5.692;2023-12-20T00:19:16;6.30;99.90
22734;DHT22;11534;51.994;5.692;2023-12-20T00:21:42;6.20;99.90
22734;DHT22;11534;51.994;5.692;2023-12-20T00:24:08;6.20;99.90
22734;DHT22;11534;51.994;5.692;2023-12-20T00:26:34;6.20;99.90
22734;DHT22;11534;51.994;5.692;2023-12-20T00:28:59;6.20;99.90
22734;DHT22;11534;51.994;5.692;2023-12-20T00:31:25;6.10;99.90
22734;DHT22;11534;51.994;5.692;2023-12-20T00:33:53;6.10;99.90
22734;DHT22;11534;51.994;5.692;2023-12-20T00:36:23;6.10;99.90
22734;DHT22;11534;51.994;5.692;2023-12-20T00:38:48;6.10;99.90
22734;DHT22;11534;51.994;5.692;2023-12-20T00:41:15;6.10;99.90
22734;DHT22;11534;51.994;5.692;2023-12-20T00:43:41;6.00;99.90
22734;DHT22;11534;51.994;5.692;2023-12-20T00:46:07;6.00;99.90
22734;DHT22;11534;51.994;5.692;2023-12-20T00:48:33;6.00;99.90
22734;DHT22;11534;51.994;5.692;2023-12-20T00:51:00;6.00;99.90
22734;DHT22;11534;51.994;5.692;2023-12-20T00:53:27;5.90;99.90
22734;DHT22;11534;51.994;5.692;2023-12-20T00:55:57;5.90;99.90
22734;DHT22;11534;51.994;5.692;2023-12-20T00:58:24;5.90;99.90
22734;DHT22;11534;51.994;5.692;2023-12-20T01:01:01;5.80;99.90
22734;DHT22;11534;51.994;5.692;2023-12-20T01:03:30;5.80;99.90
22734;DHT22;11534;51.994;5.692;2023-12-20T01:05:58;5.80;99.90
22734;DHT22;11534;51.994;5.692;2023-12-20T01:08:26;5.80;99.90
22734;DHT22;11534;51.994;5.692;2023-12-20T01:10:55;5.80;99.90
22734;DHT22;11534;51.994;5.692;2023-12-20T01:13:24;5.80;99.90
22734;DHT22;11534;51.994;5.692;2023-12-20T01:15:57;5.80;99.90
22734;DHT22;11534;51.994;5.692;2023-12-20T01:18:24;5.70;99.90
22734;DHT22;11534;51.994;5.692;2023-12-20T01:20:50;5.70;99.90
22734;DHT22;11534;51.994;5.692;2023-12-20T01:23:20;5.70;99.90
22734;DHT22;11534;51.994;5.692;2023-12-20T01:25:46;5.70;99.90
22734;DHT22;11534;51.994;5.692;2023-12-20T01:28:14;5.70;99.90
22734;DHT22;11534;51.994;5.692;2023-12-20T01:30:40;5.60;99.90
22734;DHT22;11534;51.994;5.692;2023-12-20T01:33:05;5.70;99.90
22734;DHT22;11534;51.994;5.692;2023-12-20T01:35:31;5.70;99.90
22734;DHT22;11534;51.994;5.692;2023-12-20T01:37:58;5.60;99.90
22734;DHT22;11534;51.994;5.692;2023-12-20T01:40:23;5.60;99.90
22734;DHT22;11534;51.994;5.692;2023-12-20T01:43:09;5.60;99.90
22734;DHT22;11534;51.994;5.692;2023-12-20T01:45:37;5.60;99.90
22734;DHT22;11534;51.994;5.692;2023-12-20T01:48:04;5.60;99.90
22734;DHT22;11534;51.994;5.692;2023-12-20T01:50:31;5.60;99.90
22734;DHT22;11534;51.994;5.692;2023-12-20T01:52:59;5.60;99.90
22734;DHT22;11534;51.994;5.692;2023-12-20T01:55:28;5.60;99.90
22734;DHT22;11534;51.994;5.692;2023-12-20T01:57:56;5.60;99.90
22734;DHT22;11534;51.994;5.692;2023-12-20T02:00:23;5.60;99.90
22734;DHT22;11534;51.994;5.692;2023-12-20T02:02:53;5.60;99.90
22734;DHT22;11534;51.994;5.692;2023-12-20T02:05:20;5.60;99.90
22734;DHT22;11534;51.994;5.692;2023-12-20T02:07:46;5.50;99.90
22734;DHT22;11534;51.994;5.692;2023-12-20T02:10:12;5.60;99.90
22734;DHT22;11534;51.994;5.692;2023-12-20T02:12:38;5.60;99.90
22734;DHT22;11534;51.994;5.692;2023-12-20T02:15:04;5.70;99.90
22734;DHT22;11534;51.994;5.692;2023-12-20T02:17:31;5.70;99.90
22734;DHT22;11534;51.994;5.692;2023-12-20T02:19:57;5.70;99.90
22734;DHT22;11534;51.994;5.692;2023-12-20T02:22:23;5.70;99.90
22734;DHT22;11534;51.994;5.692;2023-12-20T02:24:48;5.70;99.90
22734;DHT22;11534;51.994;5.692;2023-12-20T02:27:15;5.80;99.90
22734;DHT22;11534;51.994;5.692;2023-12-20T02:29:41;5.70;99.90
22734;DHT22;11534;51.994;5.692;2023-12-20T02:32:06;5.70;99.90
22734;DHT22;11534;51.994;5.692;2023-12-20T02:34:32;5.70;99.90
22734;DHT22;11534;51.994;5.692;2023-12-20T02:36:58;5.70;99.90
22734;DHT22;11534;51.994;5.692;2023-12-20T02:39:23;5.80;99.90
22734;DHT22;11534;51.994;5.692;2023-12-20T02:41:49;5.80;99.90
22734;DHT22;11534;51.994;5.692;2023-12-20T02:44:15;5.80;99.90
22734;DHT22;11534;51.994;5.692;2023-12-20T02:46:40;5.90;99.90
22734;DHT22;11534;51.994;5.692;2023-12-20T02:49:06;5.90;99.90
22734;DHT22;11534;51.994;5.692;2023-12-20T02:51:32;5.90;99.90
22734;DHT22;11534;51.994;5.692;2023-12-20T02:53:58;5.90;99.90
22734;DHT22;11534;51.994;5.692;2023-12-20T02:56:24;5.90;99.90
22734;DHT22;11534;51.994;5.692;2023-12-20T02:58:49;5.90;99.90
22734;DHT22;11534;51.994;5.692;2023-12-20T03:01:15;5.90;99.90
22734;DHT22;11534;51.994;5.692;2023-12-20T03:03:41;5.90;99.90
22734;DHT22;11534;51.994;5.692;2023-12-20T03:06:06;5.90;99.90
22734;DHT22;11534;51.994;5.692;2023-12-20T03:08:32;5.90;99.90
22734;DHT22;11534;51.994;5.692;2023-12-20T03:11:01;5.80;99.90
22734;DHT22;11534;51.994;5.692;2023-12-20T03:13:27;5.80;99.90
22734;DHT22;11534;51.994;5.692;2023-12-20T03:15:53;5.80;99.90
22734;DHT22;11534;51.994;5.692;2023-12-20T03:18:19;5.80;99.90
22734;DHT22;11534;51.994;5.692;2023-12-20T03:20:45;5.70;99.90
22734;DHT22;11534;51.994;5.692;2023-12-20T03:23:13;5.70;99.90
22734;DHT22;11534;51.994;5.692;2023-12-20T03:25:38;5.70;99.90
22734;DHT22;11534;51.994;5.692;2023-12-20T03:28:04;5.70;99.90
22734;DHT22;11534;51.994;5.692;2023-12-20T03:30:30;5.70;99.90
22734;DHT22;11534;51.994;5.692;2023-12-20T03:32:56;5.70;99.90
22734;DHT22;11534;51.994;5.692;2023-12-20T03:35:22;5.80;99.90
22734;DHT22;11534;51.994;5.692;2023-12-20T03:37:48;5.70;99.90
22734;DHT22;11534;51.994;5.692;2023-12-20T03:40:14;5.80;99.90
22734;DHT22;11534;51.994;5.692;2023-12-20T03:42:40;5.80;99.90
22734;DHT22;11534;51.994;5.692;2023-12-20T03:45:06;5.80;99.90
22734;DHT22;11534;51.994;5.692;2023-12-20T03:47:31;5.80;99.90
22734;DHT22;11534;51.994;5.692;2023-12-20T03:49:57;5.90;99.90
22734;DHT22;11534;51.994;5.692;2023-12-20T03:52:23;5.80;99.90
22734;DHT22;11534;51.994;5.692;2023-12-20T03:54:48;5.80;99.90
22734;DHT22;11534;51.994;5.692;2023-12-20T03:57:14;5.80;99.90
22734;DHT22;11534;51.994;5.692;2023-12-20T03:59:40;5.80;99.90
22734;DHT22;11534;51.994;5.692;2023-12-20T04:02:06;5.80;99.90
22734;DHT22;11534;51.994;5.692;2023-12-20T04:07:08;5.90;99.90
22734;DHT22;11534;51.994;5.692;2023-12-20T04:09:34;5.80;99.90
22734;DHT22;11534;51.994;5.692;2023-12-20T04:11:59;5.90;99.90
22734;DHT22;11534;51.994;5.692;2023-12-20T04:14:25;5.90;99.90
22734;DHT22;11534;51.994;5.692;2023-12-20T04:16:52;5.90;99.90
22734;DHT22;11534;51.994;5.692;2023-12-20T04:19:20;5.90;99.90
22734;DHT22;11534;51.994;5.692;2023-12-20T04:21:45;5.90;99.90
22734;DHT22;11534;51.994;5.692;2023-12-20T04:24:13;5.90;99.90
22734;DHT22;11534;51.994;5.692;2023-12-20T04:26:38;5.90;99.90
22734;DHT22;11534;51.994;5.692;2023-12-20T04:29:08;6.00;99.90
22734;DHT22;11534;51.994;5.692;2023-12-20T04:31:34;6.00;99.90
22734;DHT22;11534;51.994;5.692;2023-12-20T04:34:00;6.00;99.90
22734;DHT22;11534;51.994;5.692;2023-12-20T04:36:26;6.10;99.90
22734;DHT22;11534;51.994;5.692;2023-12-20T04:38:53;5.90;99.90
22734;DHT22;11534;51.994;5.692;2023-12-20T04:41:19;6.00;99.90
22734;DHT22;11534;51.994;5.692;2023-12-20T04:43:51;6.00;99.90
22734;DHT22;11534;51.994;5.692;2023-12-20T04:46:17;6.00;99.90
22734;DHT22;11534;51.994;5.692;2023-12-20T04:48:42;6.00;99.90
22734;DHT22;11534;51.994;5.692;2023-12-20T04:51:09;6.00;99.90
22734;DHT22;11534;51.994;5.692;2023-12-20T04:53:36;6.00;99.90
22734;DHT22;11534;51.994;5.692;2023-12-20T04:56:02;6.00;99.90
22734;DHT22;11534;51.994;5.692;2023-12-20T05:01:05;6.00;99.90
22734;DHT22;11534;51.994;5.692;2023-12-20T05:03:31;6.00;99.90
22734;DHT22;11534;51.994;5.692;2023-12-20T05:05:57;6.10;99.90
22734;DHT22;11534;51.994;5.692;2023-12-20T05:08:22;6.10;99.90
22734;DHT22;11534;51.994;5.692;2023-12-20T05:10:48;6.10;99.90
22734;DHT22;11534;51.994;5.692;2023-12-20T05:13:14;6.10;99.90
22734;DHT22;11534;51.994;5.692;2023-12-20T05:15:40;6.20;99.90
22734;DHT22;11534;51.994;5.692;2023-12-20T05:18:05;6.10;99.90
22734;DHT22;11534;51.994;5.692;2023-12-20T05:20:31;6.20;99.90
22734;DHT22;11534;51.994;5.692;2023-12-20T05:22:57;6.20;99.90
22734;DHT22;11534;51.994;5.692;2023-12-20T05:25:23;6.30;99.90
22734;DHT22;11534;51.994;5.692;2023-12-20T06:26:35;6.50;99.90
22734;DHT22;11534;51.994;5.692;2023-12-20T06:29:00;6.50;99.90
22734;DHT22;11534;51.994;5.692;2023-12-20T06:44:21;6.50;99.90
22734;DHT22;11534;51.994;5.692;2023-12-20T06:46:47;6.50;99.90
22734;DHT22;11534;51.994;5.692;2023-12-20T06:49:13;6.60;99.90
22734;DHT22;11534;51.994;5.692;2023-12-20T06:54:14;6.60;99.90
22734;DHT22;11534;51.994;5.692;2023-12-20T06:59:15;6.50;99.90
22734;DHT22;11534;51.994;5.692;2023-12-20T07:07:01;6.60;99.90
22734;DHT22;11534;51.994;5.692;2023-12-20T07:09:28;6.60;99.90
22734;DHT22;11534;51.994;5.692;2023-12-20T07:11:53;6.60;99.90
22734;DHT22;11534;51.994;5.692;2023-12-20T07:14:19;6.50;99.90
22734;DHT22;11534;51.994;5.692;2023-12-20T07:16:44;6.60;99.90
22734;DHT22;11534;51.994;5.692;2023-12-20T07:19:10;6.60;99.90
22734;DHT22;11534;51.994;5.692;2023-12-20T07:21:36;6.50;99.90
22734;DHT22;11534;51.994;5.692;2023-12-20T07:24:01;6.50;99.90
22734;DHT22;11534;51.994;5.692;2023-12-20T07:26:27;6.60;99.90
22734;DHT22;11534;51.994;5.692;2023-12-20T07:31:27;6.70;99.90
22734;DHT22;11534;51.994;5.692;2023-12-20T07:33:52;6.70;99.90
22734;DHT22;11534;51.994;5.692;2023-12-20T07:36:19;6.70;99.90
22734;DHT22;11534;51.994;5.692;2023-12-20T07:38:45;6.70;99.90
22734;DHT22;11534;51.994;5.692;2023-12-20T07:41:11;6.60;99.90
22734;DHT22;11534;51.994;5.692;2023-12-20T07:43:36;6.70;99.90
22734;DHT22;11534;51.994;5.692;2023-12-20T07:46:06;6.70;99.90
22734;DHT22;11534;51.994;5.692;2023-12-20T07:48:33;6.70;99.90
22734;DHT22;11534;51.994;5.692;2023-12-20T07:50:59;6.70;99.90
22734;DHT22;11534;51.994;5.692;2023-12-20T07:53:25;6.70;99.90
22734;DHT22;11534;51.994;5.692;2023-12-20T07:55:51;6.70;99.90
22734;DHT22;11534;51.994;5.692;2023-12-20T07:58:18;6.70;99.90
22734;DHT22;11534;51.994;5.692;2023-12-20T08:00:43;6.70;99.90
22734;DHT22;11534;51.994;5.692;2023-12-20T08:03:09;6.70;99.90
22734;DHT22;11534;51.994;5.692;2023-12-20T08:05:35;6.70;99.90
22734;DHT22;11534;51.994;5.692;2023-12-20T08:08:00;6.80;99.90
22734;DHT22;11534;51.994;5.692;2023-12-20T08:10:26;6.80;99.90
22734;DHT22;11534;51.994;5.692;2023-12-20T08:12:54;6.80;99.90
22734;DHT22;11534;51.994;5.692;2023-12-20T08:15:20;6.80;99.90
22734;DHT22;11534;51.994;5.692;2023-12-20T08:17:46;6.80;99.90
22734;DHT22;11534;51.994;5.692;2023-12-20T08:20:11;6.80;99.90
22734;DHT22;11534;51.994;5.692;2023-12-20T08:22:52;6.80;99.90
22734;DHT22;11534;51.994;5.692;2023-12-20T08:25:20;6.80;99.90
22734;DHT22;11534;51.994;5.692;2023-12-20T08:27:47;6.80;99.90
22734;DHT22;11534;51.994;5.692;2023-12-20T08:30:13;6.90;99.90
22734;DHT22;11534;51.994;5.692;2023-12-20T08:32:39;6.90;99.90
22734;DHT22;11534;51.994;5.692;2023-12-20T08:35:05;6.90;99.90
22734;DHT22;11534;51.994;5.692;2023-12-20T08:37:31;6.90;99.90
22734;DHT22;11534;51.994;5.692;2023-12-20T08:39:58;6.90;99.90
22734;DHT22;11534;51.994;5.692;2023-12-20T08:42:23;6.90;99.90
22734;DHT22;11534;51.994;5.692;2023-12-20T08:44:50;6.90;99.90
22734;DHT22;11534;51.994;5.692;2023-12-20T08:47:15;6.90;99.90
22734;DHT22;11534;51.994;5.692;2023-12-20T08:49:43;6.90;99.90
22734;DHT22;11534;51.994;5.692;2023-12-20T08:52:12;6.90;99.90
22734;DHT22;11534;51.994;5.692;2023-12-20T08:54:37;6.90;99.90
22734;DHT22;11534;51.994;5.692;2023-12-20T08:57:04;6.90;99.90
22734;DHT22;11534;51.994;5.692;2023-12-20T08:59:32;7.00;99.90
22734;DHT22;11534;51.994;5.692;2023-12-20T09:01:58;7.00;99.90
22734;DHT22;11534;51.994;5.692;2023-12-20T09:04:23;7.00;99.90
22734;DHT22;11534;51.994;5.692;2023-12-20T09:06:49;7.00;99.90
22734;DHT22;11534;51.994;5.692;2023-12-20T09:09:15;7.10;99.90
22734;DHT22;11534;51.994;5.692;2023-12-20T09:11:41;7.00;99.90
22734;DHT22;11534;51.994;5.692;2023-12-20T09:14:07;7.00;99.90
22734;DHT22;11534;51.994;5.692;2023-12-20T09:16:33;7.00;99.90
22734;DHT22;11534;51.994;5.692;2023-12-20T09:18:59;7.00;99.90
22734;DHT22;11534;51.994;5.692;2023-12-20T09:21:27;7.00;99.90
22734;DHT22;11534;51.994;5.692;2023-12-20T09:23:53;7.10;99.90
22734;DHT22;11534;51.994;5.692;2023-12-20T09:26:18;7.00;99.90
22734;DHT22;11534;51.994;5.692;2023-12-20T09:28:44;7.00;99.90
22734;DHT22;11534;51.994;5.692;2023-12-20T09:31:10;7.00;99.90
22734;DHT22;11534;51.994;5.692;2023-12-20T09:33:36;7.00;99.90
22734;DHT22;11534;51.994;5.692;2023-12-20T09:36:01;7.00;99.90
22734;DHT22;11534;51.994;5.692;2023-12-20T09:38:27;7.00;99.90
22734;DHT22;11534;51.994;5.692;2023-12-20T09:40:54;7.00;99.90
22734;DHT22;11534;51.994;5.692;2023-12-20T09:43:23;7.00;99.90
22734;DHT22;11534;51.994;5.692;2023-12-20T09:45:52;7.00;99.90
22734;DHT22;11534;51.994;5.692;2023-12-20T09:48:18;7.00;99.90
22734;DHT22;11534;51.994;5.692;2023-12-20T10:09:44;7.20;99.90
22734;DHT22;11534;51.994;5.692;2023-12-20T10:12:10;7.20;99.90
22734;DHT22;11534;51.994;5.692;2023-12-20T10:14:38;7.20;99.90
22734;DHT22;11534;51.994;5.692;2023-12-20T10:17:05;7.20;99.90
22734;DHT22;11534;51.994;5.692;2023-12-20T10:19:31;7.20;99.90
22734;DHT22;11534;51.994;5.692;2023-12-20T10:22:01;7.20;99.90
22734;DHT22;11534;51.994;5.692;2023-12-20T10:24:30;7.30;99.90
22734;DHT22;11534;51.994;5.692;2023-12-20T10:27:06;7.30;99.90
22734;DHT22;11534;51.994;5.692;2023-12-20T10:29:41;7.30;99.90
22734;DHT22;11534;51.994;5.692;2023-12-20T10:34:40;7.30;99.90
22734;DHT22;11534;51.994;5.692;2023-12-20T10:37:06;7.40;99.90
22734;DHT22;11534;51.994;5.692;2023-12-20T10:39:31;7.40;99.90
22734;DHT22;11534;51.994;5.692;2023-12-20T10:41:57;7.40;99.90
22734;DHT22;11534;51.994;5.692;2023-12-20T10:44:23;7.40;99.90
22734;DHT22;11534;51.994;5.692;2023-12-20T10:46:49;7.40;99.90
22734;DHT22;11534;51.994;5.692;2023-12-20T10:49:17;7.40;99.90
22734;DHT22;11534;51.994;5.692;2023-12-20T10:51:44;7.40;99.90
22734;DHT22;11534;51.994;5.692;2023-12-20T10:54:11;7.50;99.90
22734;DHT22;11534;51.994;5.692;2023-12-20T10:56:38;7.50;99.90
22734;DHT22;11534;51.994;5.692;2023-12-20T10:59:04;7.50;99.90
22734;DHT22;11534;51.994;5.692;2023-12-20T11:01:31;7.50;99.90
22734;DHT22;11534;51.994;5.692;2023-12-20T11:03:57;7.60;99.90
22734;DHT22;11534;51.994;5.692;2023-12-20T11:06:47;7.60;99.90
22734;DHT22;11534;51.994;5.692;2023-12-20T11:09:22;7.70;99.90
22734;DHT22;11534;51.994;5.692;2023-12-20T11:12:15;7.70;99.90
22734;DHT22;11534;51.994;5.692;2023-12-20T11:14:48;7.80;99.90
22734;DHT22;11534;51.994;5.692;2023-12-20T11:17:15;7.90;99.90
22734;DHT22;11534;51.994;5.692;2023-12-20T11:22:30;7.90;99.90
22734;DHT22;11534;51.994;5.692;2023-12-20T11:25:10;7.90;99.90
22734;DHT22;11534;51.994;5.692;2023-12-20T11:27:42;8.00;99.90
22734;DHT22;11534;51.994;5.692;2023-12-20T11:30:11;8.00;99.90
22734;DHT22;11534;51.994;5.692;2023-12-20T11:32:37;8.00;99.90
22734;DHT22;11534;51.994;5.692;2023-12-20T11:37:36;8.00;99.90
22734;DHT22;11534;51.994;5.692;2023-12-20T11:40:07;8.00;99.90
22734;DHT22;11534;51.994;5.692;2023-12-20T11:42:39;8.00;99.90
22734;DHT22;11534;51.994;5.692;2023-12-20T11:45:05;8.10;99.90
22734;DHT22;11534;51.994;5.692;2023-12-20T11:47:33;8.10;99.90
22734;DHT22;11534;51.994;5.692;2023-12-20T11:50:00;8.10;99.90
22734;DHT22;11534;51.994;5.692;2023-12-20T12:05:25;8.30;99.90
22734;DHT22;11534;51.994;5.692;2023-12-20T12:07:51;8.40;99.90
22734;DHT22;11534;51.994;5.692;2023-12-20T12:10:17;8.40;99.90
22734;DHT22;11534;51.994;5.692;2023-12-20T12:12:42;8.50;99.90
22734;DHT22;11534;51.994;5.692;2023-12-20T12:15:08;8.50;99.90
22734;DHT22;11534;51.994;5.692;2023-12-20T12:17:34;8.60;99.90
22734;DHT22;11534;51.994;5.692;2023-12-20T12:20:05;8.50;99.90
22734;DHT22;11534;51.994;5.692;2023-12-20T12:22:31;8.60;99.90
22734;DHT22;11534;51.994;5.692;2023-12-20T12:24:59;8.60;99.90
22734;DHT22;11534;51.994;5.692;2023-12-20T12:27:34;8.60;99.90
22734;DHT22;11534;51.994;5.692;2023-12-20T12:30:04;8.60;99.90
22734;DHT22;11534;51.994;5.692;2023-12-20T12:32:32;8.60;99.90
22734;DHT22;11534;51.994;5.692;2023-12-20T12:34:58;8.60;99.90
22734;DHT22;11534;51.994;5.692;2023-12-20T12:39:59;8.50;99.90
22734;DHT22;11534;51.994;5.692;2023-12-20T12:42:25;8.40;99.90
22734;DHT22;11534;51.994;5.692;2023-12-20T12:44:54;8.40;99.90
22734;DHT22;11534;51.994;5.692;2023-12-20T12:47:20;8.40;99.90
22734;DHT22;11534;51.994;5.692;2023-12-20T12:49:46;8.40;99.90
22734;DHT22;11534;51.994;5.692;2023-12-20T12:52:12;8.40;99.90
22734;DHT22;11534;51.994;5.692;2023-12-20T12:54:37;8.40;99.90
22734;DHT22;11534;51.994;5.692;2023-12-20T12:57:03;8.50;99.90
22734;DHT22;11534;51.994;5.692;2023-12-20T13:02:03;8.50;99.90
22734;DHT22;11534;51.994;5.692;2023-12-20T13:04:29;8.50;99.90
22734;DHT22;11534;51.994;5.692;2023-12-20T13:06:55;8.50;99.90
22734;DHT22;11534;51.994;5.692;2023-12-20T13:14:35;8.50;99.90
22734;DHT22;11534;51.994;5.692;2023-12-20T13:17:04;8.50;99.90
22734;DHT22;11534;51.994;5.692;2023-12-20T13:19:31;8.50;99.90
22734;DHT22;11534;51.994;5.692;2023-12-20T13:21:57;8.50;99.90
22734;DHT22;11534;51.994;5.692;2023-12-20T13:24:23;8.50;99.90
22734;DHT22;11534;51.994;5.692;2023-12-20T13:26:49;8.50;99.90
22734;DHT22;11534;51.994;5.692;2023-12-20T13:29:15;8.50;99.90
22734;DHT22;11534;51.994;5.692;2023-12-20T13:31:41;8.50;99.90
22734;DHT22;11534;51.994;5.692;2023-12-20T13:34:07;8.50;99.90
22734;DHT22;11534;51.994;5.692;2023-12-20T13:36:33;8.40;99.90
22734;DHT22;11534;51.994;5.692;2023-12-20T13:38:58;8.40;99.90
22734;DHT22;11534;51.994;5.692;2023-12-20T13:41:24;8.40;99.90
22734;DHT22;11534;51.994;5.692;2023-12-20T13:43:51;8.40;99.90
22734;DHT22;11534;51.994;5.692;2023-12-20T13:46:16;8.40;99.90
22734;DHT22;11534;51.994;5.692;2023-12-20T13:48:42;8.40;99.90
22734;DHT22;11534;51.994;5.692;2023-12-20T13:51:08;8.40;99.90
22734;DHT22;11534;51.994;5.692;2023-12-20T13:53:34;8.40;99.90
22734;DHT22;11534;51.994;5.692;2023-12-20T13:55:59;8.40;99.90
22734;DHT22;11534;51.994;5.692;2023-12-20T13:58:26;8.40;99.90
22734;DHT22;11534;51.994;5.692;2023-12-20T14:00:51;8.40;99.90
22734;DHT22;11534;51.994;5.692;2023-12-20T14:03:17;8.40;99.90
22734;DHT22;11534;51.994;5.692;2023-12-20T14:05:46;8.50;99.90
22734;DHT22;11534;51.994;5.692;2023-12-20T14:08:12;8.40;99.90
22734;DHT22;11534;51.994;5.692;2023-12-20T14:10:37;8.40;99.90
22734;DHT22;11534;51.994;5.692;2023-12-20T14:13:04;8.40;99.90
22734;DHT22;11534;51.994;5.692;2023-12-20T14:15:30;8.40;99.90
22734;DHT22;11534;51.994;5.692;2023-12-20T14:18:05;8.40;99.90
22734;DHT22;11534;51.994;5.692;2023-12-20T14:20:34;8.40;99.90
22734;DHT22;11534;51.994;5.692;2023-12-20T14:23:05;8.40;99.90
22734;DHT22;11534;51.994;5.692;2023-12-20T14:25:30;8.40;99.90
22734;DHT22;11534;51.994;5.692;2023-12-20T14:27:59;8.40;99.90
22734;DHT22;11534;51.994;5.692;2023-12-20T14:30:25;8.40;99.90
22734;DHT22;11534;51.994;5.692;2023-12-20T14:32:50;8.40;99.90
22734;DHT22;11534;51.994;5.692;2023-12-20T14:35:16;8.40;99.90
22734;DHT22;11534;51.994;5.692;2023-12-20T14:37:42;8.40;99.90
22734;DHT22;11534;51.994;5.692;2023-12-20T14:40:08;8.40;99.90
22734;DHT22;11534;51.994;5.692;2023-12-20T14:42:43;8.40;99.90
22734;DHT22;11534;51.994;5.692;2023-12-20T14:45:11;8.40;99.90
22734;DHT22;11534;51.994;5.692;2023-12-20T14:47:38;8.30;99.90
22734;DHT22;11534;51.994;5.692;2023-12-20T14:50:04;8.40;99.90
22734;DHT22;11534;51.994;5.692;2023-12-20T14:52:31;8.30;99.90
22734;DHT22;11534;51.994;5.692;2023-12-20T14:54:57;8.30;99.90
22734;DHT22;11534;51.994;5.692;2023-12-20T14:57:23;8.30;99.90
22734;DHT22;11534;51.994;5.692;2023-12-20T14:59:48;8.30;99.90
22734;DHT22;11534;51.994;5.692;2023-12-20T15:02:14;8.40;99.90
22734;DHT22;11534;51.994;5.692;2023-12-20T15:04:41;8.40;99.90
22734;DHT22;11534;51.994;5.692;2023-12-20T15:07:07;8.40;99.90
22734;DHT22;11534;51.994;5.692;2023-12-20T15:09:33;8.40;99.90
22734;DHT22;11534;51.994;5.692;2023-12-20T15:11:58;8.30;99.90
22734;DHT22;11534;51.994;5.692;2023-12-20T15:14:24;8.30;99.90
22734;DHT22;11534;51.994;5.692;2023-12-20T15:16:50;8.30;99.90
22734;DHT22;11534;51.994;5.692;2023-12-20T15:19:15;8.30;99.90
22734;DHT22;11534;51.994;5.692;2023-12-20T15:21:41;8.30;99.90
22734;DHT22;11534;51.994;5.692;2023-12-20T15:24:11;8.30;99.90
22734;DHT22;11534;51.994;5.692;2023-12-20T15:26:42;8.30;99.90
22734;DHT22;11534;51.994;5.692;2023-12-20T15:29:09;8.20;99.90
22734;DHT22;11534;51.994;5.692;2023-12-20T15:31:36;8.20;99.90
22734;DHT22;11534;51.994;5.692;2023-12-20T15:34:02;8.20;99.90
22734;DHT22;11534;51.994;5.692;2023-12-20T15:36:28;8.20;99.90
22734;DHT22;11534;51.994;5.692;2023-12-20T15:38:54;8.20;99.90
22734;DHT22;11534;51.994;5.692;2023-12-20T15:41:21;8.10;99.90
22734;DHT22;11534;51.994;5.692;2023-12-20T15:43:47;8.10;99.90
22734;DHT22;11534;51.994;5.692;2023-12-20T15:46:13;8.10;99.90
22734;DHT22;11534;51.994;5.692;2023-12-20T15:48:39;8.10;99.90
22734;DHT22;11534;51.994;5.692;2023-12-20T15:51:08;8.10;99.90
22734;DHT22;11534;51.994;5.692;2023-12-20T15:53:35;8.10;99.90
22734;DHT22;11534;51.994;5.692;2023-12-20T15:56:01;8.10;99.90
22734;DHT22;11534;51.994;5.692;2023-12-20T15:58:29;8.10;99.90
22734;DHT22;11534;51.994;5.692;2023-12-20T16:00:56;8.10;99.90
22734;DHT22;11534;51.994;5.692;2023-12-20T16:03:21;8.00;99.90
22734;DHT22;11534;51.994;5.692;2023-12-20T16:05:47;8.10;99.90
22734;DHT22;11534;51.994;5.692;2023-12-20T16:08:13;8.10;99.90
22734;DHT22;11534;51.994;5.692;2023-12-20T16:10:39;8.10;99.90
22734;DHT22;11534;51.994;5.692;2023-12-20T16:13:05;8.00;99.90
22734;DHT22;11534;51.994;5.692;2023-12-20T16:15:31;8.00;99.90
22734;DHT22;11534;51.994;5.692;2023-12-20T16:17:57;8.00;99.90
22734;DHT22;11534;51.994;5.692;2023-12-20T16:20:22;8.00;99.90
22734;DHT22;11534;51.994;5.692;2023-12-20T16:22:48;8.00;99.90
22734;DHT22;11534;51.994;5.692;2023-12-20T16:25:14;8.00;99.90
22734;DHT22;11534;51.994;5.692;2023-12-20T16:27:40;8.00;99.90
22734;DHT22;11534;51.994;5.692;2023-12-20T16:30:06;8.00;99.90
22734;DHT22;11534;51.994;5.692;2023-12-20T16:32:32;7.90;99.90
22734;DHT22;11534;51.994;5.692;2023-12-20T16:34:58;8.00;99.90
22734;DHT22;11534;51.994;5.692;2023-12-20T16:37:25;8.00;99.90
22734;DHT22;11534;51.994;5.692;2023-12-20T16:39:50;8.00;99.90
22734;DHT22;11534;51.994;5.692;2023-12-20T16:42:16;8.00;99.90
22734;DHT22;11534;51.994;5.692;2023-12-20T16:44:43;8.00;99.90
22734;DHT22;11534;51.994;5.692;2023-12-20T16:47:10;8.10;99.90
22734;DHT22;11534;51.994;5.692;2023-12-20T16:49:35;8.00;99.90
22734;DHT22;11534;51.994;5.692;2023-12-20T16:52:01;8.00;99.90
22734;DHT22;11534;51.994;5.692;2023-12-20T16:54:27;8.00;99.90
22734;DHT22;11534;51.994;5.692;2023-12-20T16:56:52;8.00;99.90
22734;DHT22;11534;51.994;5.692;2023-12-20T16:59:18;8.00;99.90
22734;DHT22;11534;51.994;5.692;2023-12-20T17:01:44;8.00;99.90
22734;DHT22;11534;51.994;5.692;2023-12-20T17:04:11;8.00;99.90
22734;DHT22;11534;51.994;5.692;2023-12-20T17:06:37;8.00;99.90
22734;DHT22;11534;51.994;5.692;2023-12-20T17:09:03;8.00;99.90
22734;DHT22;11534;51.994;5.692;2023-12-20T17:11:30;8.00;99.90
22734;DHT22;11534;51.994;5.692;2023-12-20T17:13:56;8.00;99.90
22734;DHT22;11534;51.994;5.692;2023-12-20T17:16:23;8.00;99.90
22734;DHT22;11534;51.994;5.692;2023-12-20T17:18:49;8.10;99.90
22734;DHT22;11534;51.994;5.692;2023-12-20T17:21:15;8.10;99.90
22734;DHT22;11534;51.994;5.692;2023-12-20T17:23:42;8.00;99.90
22734;DHT22;11534;51.994;5.692;2023-12-20T17:26:08;8.00;99.90
22734;DHT22;11534;51.994;5.692;2023-12-20T17:28:33;8.00;99.90
22734;DHT22;11534;51.994;5.692;2023-12-20T17:30:59;8.00;99.90
22734;DHT22;11534;51.994;5.692;2023-12-20T17:33:25;8.10;99.90
22734;DHT22;11534;51.994;5.692;2023-12-20T17:35:51;8.00;99.90
22734;DHT22;11534;51.994;5.692;2023-12-20T17:38:17;8.00;99.90
22734;DHT22;11534;51.994;5.692;2023-12-20T17:40:43;8.00;99.90
22734;DHT22;11534;51.994;5.692;2023-12-20T17:43:08;8.00;99.90
22734;DHT22;11534;51.994;5.692;2023-12-20T17:45:36;8.00;99.90
22734;DHT22;11534;51.994;5.692;2023-12-20T17:48:03;8.00;99.90
22734;DHT22;11534;51.994;5.692;2023-12-20T17:50:29;8.00;99.90
22734;DHT22;11534;51.994;5.692;2023-12-20T17:52:55;8.00;99.90
22734;DHT22;11534;51.994;5.692;2023-12-20T17:55:28;8.00;99.90
22734;DHT22;11534;51.994;5.692;2023-12-20T17:57:54;8.00;99.90
22734;DHT22;11534;51.994;5.692;2023-12-20T18:00:23;8.00;99.90
22734;DHT22;11534;51.994;5.692;2023-12-20T18:02:50;8.00;99.90